createdAt,value
2023-04-23T16:53:20.290Z,0.30
2023-04-23T17:03:40.710Z,0.47
2023-04-23T17:06:26.667Z,0.30
2023-04-23T17:09:10.828Z,0.13
2023-04-23T17:11:52.001Z,0.25
2023-04-23T17:14:35.744Z,0.28
2023-04-23T17:17:13.653Z,0.20
2023-04-23T17:19:52.588Z,0.35
2023-04-23T17:22:30.664Z,0.30
2023-04-23T17:25:12.081Z,0.20
2023-04-23T17:27:46.700Z,0.25
2023-04-23T17:30:35.118Z,0.20
2023-04-23T17:33:21.002Z,0.40
2023-04-23T17:36:00.962Z,0.50
2023-04-23T17:38:35.929Z,0.22
2023-04-23T17:41:11.019Z,0.30
2023-04-23T17:43:51.630Z,0.57
2023-04-23T17:46:33.886Z,0.50
2023-04-23T17:49:10.565Z,0.45
2023-04-23T17:51:46.993Z,0.40
2023-04-23T17:54:42.476Z,0.60
2023-04-23T17:57:24.287Z,0.30
2023-04-23T18:00:01.945Z,0.40
2023-04-23T18:02:40.488Z,0.40
2023-04-23T18:05:30.801Z,0.60
2023-04-23T18:08:09.816Z,0.40
2023-04-23T18:10:52.804Z,0.47
2023-04-23T18:13:30.543Z,0.80
2023-04-23T18:16:07.727Z,0.50
2023-04-23T18:18:42.556Z,0.70
2023-04-23T18:21:18.884Z,0.70
2023-04-23T18:24:00.391Z,0.50
2023-04-23T18:26:54.884Z,0.60
2023-04-23T18:29:32.791Z,0.68
2023-04-23T18:32:27.438Z,0.63
2023-04-23T18:35:10.298Z,0.70
2023-04-23T18:38:00.980Z,0.60
2023-04-23T18:40:40.334Z,0.50
2023-04-23T18:43:17.907Z,0.60
2023-04-23T18:45:53.678Z,0.60
2023-04-23T18:48:53.603Z,0.88
2023-04-23T18:51:37.586Z,0.98
2023-04-23T18:54:14.824Z,0.82
2023-04-23T18:56:51.097Z,1.00
2023-04-23T18:59:25.418Z,0.82
2023-04-23T19:01:59.730Z,0.73
2023-04-23T19:04:34.233Z,0.98
2023-04-23T19:07:08.475Z,1.23
2023-04-23T19:09:42.819Z,0.77
2023-04-23T19:12:19.224Z,0.75
2023-04-23T19:14:53.310Z,0.90
2023-04-23T19:17:27.680Z,0.82
2023-04-23T19:20:01.799Z,0.80
2023-04-23T19:22:35.737Z,0.77
2023-04-23T19:25:10.837Z,0.60
2023-04-23T19:27:46.283Z,0.95
2023-04-23T19:30:20.322Z,0.80
2023-04-23T19:32:54.776Z,0.82
2023-04-23T19:35:28.907Z,0.68
2023-04-23T19:38:02.948Z,0.70
2023-04-23T19:40:37.052Z,0.55
2023-04-23T19:43:12.989Z,0.50
2023-04-23T19:45:47.333Z,0.35
2023-04-23T19:48:21.557Z,0.52
2023-04-23T19:50:55.804Z,0.30
2023-04-23T19:53:29.868Z,0.40
2023-04-23T19:56:03.927Z,0.50
2023-04-23T19:58:39.523Z,0.20
2023-04-23T20:01:14.425Z,0.20
2023-04-23T20:03:50.881Z,0.10
2023-04-23T20:06:24.952Z,0.22
2023-04-23T20:09:07.461Z,0.20
2023-04-23T20:11:41.642Z,0.20
2023-04-23T20:14:17.116Z,0.40
2023-04-23T20:16:51.509Z,0.17
2023-04-23T20:19:26.070Z,0.35
2023-04-23T20:22:00.300Z,0.30
2023-04-23T20:24:35.699Z,0.60
2023-04-23T20:27:09.741Z,0.30
2023-04-23T20:29:45.100Z,0.25
2023-04-23T20:32:19.230Z,0.30
2023-04-23T20:34:53.516Z,0.20
2023-04-23T20:37:28.448Z,0.20
2023-04-23T20:40:10.839Z,0.25
2023-04-23T20:42:46.442Z,0.40
2023-04-23T20:45:22.371Z,0.20
2023-04-23T20:47:57.378Z,0.20
2023-04-23T20:50:31.597Z,0.30
2023-04-23T20:53:05.646Z,0.30
2023-04-23T20:55:39.713Z,0.20
2023-04-23T20:58:13.840Z,0.30
2023-04-23T21:00:49.609Z,0.20
2023-04-23T21:03:23.985Z,0.20
2023-04-23T21:05:58.725Z,0.20
2023-04-23T21:08:33.061Z,0.20
2023-04-23T21:11:11.026Z,0.30
2023-04-23T21:13:45.465Z,0.20
2023-04-23T21:16:20.878Z,0.25
2023-04-23T21:18:54.882Z,0.20
2023-04-23T21:21:29.928Z,0.20
2023-04-23T21:24:04.040Z,0.40
2023-04-23T21:26:38.257Z,0.20
2023-04-23T21:29:12.416Z,0.20
2023-04-23T21:31:52.099Z,0.20
2023-04-23T21:34:27.366Z,0.20
2023-04-23T21:37:01.361Z,0.40
2023-04-23T21:39:35.529Z,0.30
2023-04-23T21:42:09.552Z,0.20
2023-04-23T21:44:44.151Z,0.20
2023-04-23T21:47:19.501Z,0.20
2023-04-23T21:49:53.758Z,0.20
2023-04-23T21:52:27.842Z,0.30
2023-04-23T21:55:02.202Z,0.20
2023-04-23T21:57:36.408Z,0.40
2023-04-23T22:00:13.976Z,0.20
2023-04-23T22:02:49.717Z,0.30
2023-04-23T22:05:25.513Z,0.20
2023-04-23T22:07:59.477Z,0.20
2023-04-23T22:10:33.964Z,0.20
2023-04-23T22:13:08.294Z,0.38
2023-04-23T22:15:42.350Z,0.30
2023-04-23T22:18:17.713Z,0.22
2023-04-23T22:21:22.521Z,0.20
2023-04-23T22:23:56.820Z,0.30
2023-04-23T22:26:30.871Z,0.30
2023-04-23T22:29:05.109Z,0.20
2023-04-23T22:38:36.280Z,0.52
2023-04-23T22:41:10.349Z,0.20
2023-04-23T22:43:44.321Z,0.20
2023-04-23T22:46:18.343Z,0.15
2023-04-23T22:48:52.677Z,0.35
2023-04-23T22:51:26.741Z,0.10
2023-04-23T22:54:36.234Z,0.10
2023-04-23T22:57:10.419Z,0.30
2023-04-23T22:59:44.610Z,0.10
2023-04-23T23:06:24.891Z,0.20
2023-04-23T23:08:58.917Z,0.10
2023-04-23T23:11:34.850Z,0.20
2023-04-23T23:14:28.871Z,0.10
2023-04-23T23:17:02.980Z,0.30
2023-04-23T23:19:36.992Z,0.30
2023-04-23T23:22:11.189Z,0.20
2023-04-23T23:25:33.599Z,0.10
2023-04-23T23:28:08.892Z,0.22
2023-04-23T23:30:43.292Z,0.22
2023-04-23T23:33:17.569Z,0.20
2023-04-23T23:35:51.732Z,0.30
2023-04-23T23:38:25.765Z,0.40
2023-04-23T23:40:59.764Z,0.20
2023-04-23T23:43:35.035Z,0.20
2023-04-23T23:46:10.545Z,0.20
2023-04-23T23:48:44.812Z,0.17
2023-04-23T23:55:30.825Z,0.20
2023-04-23T23:58:04.842Z,0.20
